Time;durP1;ratioP1;P1;durP2;ratioP2;P2;SDS_P1;SDS_P2;PMS_P1;PMS_P2;Temp;Humidity;BMP_temperature;BMP_pressure;BME280_temperature;BME280_humidity;BME280_pressure;Samples;Min_cycle;Max_cycle;Signal;HPM_P1;HPM_P2
2021/11/04 00:00:19;;;;;;;85.38;31.45;;;6.70;99.90;;;;;;5012766;28;20034;-82
2021/11/04 00:02:45;;;;;;;81.82;30.15;;;6.70;99.90;;;;;;4995032;28;20048;-82
2021/11/04 00:05:12;;;;;;;90.00;29.05;;;6.70;99.90;;;;;;4996218;28;20333;-81
2021/11/04 00:07:38;;;;;;;65.25;27.13;;;6.70;99.90;;;;;;4996212;28;20409;-81
2021/11/04 00:10:05;;;;;;;58.20;25.67;;;6.70;99.90;;;;;;4996225;28;20064;-81
2021/11/04 00:12:31;;;;;;;56.08;26.25;;;6.70;99.90;;;;;;4997516;28;20058;-81
2021/11/04 00:14:57;;;;;;;73.88;27.33;;;6.60;99.90;;;;;;4996229;28;20076;-81
2021/11/04 00:17:22;;;;;;;67.28;27.77;;;6.60;99.90;;;;;;4998473;28;20116;-81
2021/11/04 00:19:48;;;;;;;88.50;28.63;;;6.60;99.90;;;;;;4996210;28;20121;-81
2021/11/04 00:22:14;;;;;;;63.90;27.40;;;6.60;99.90;;;;;;5014658;28;20140;-81
2021/11/04 00:24:39;;;;;;;96.72;29.13;;;6.60;99.90;;;;;;4995318;28;20042;-81
2021/11/04 00:27:06;;;;;;;70.30;27.67;;;6.60;99.90;;;;;;5018736;28;20090;-82
2021/11/04 00:29:31;;;;;;;62.42;28.20;;;6.60;99.90;;;;;;4995356;28;20046;-81
2021/11/04 00:31:57;;;;;;;70.05;26.80;;;6.60;99.90;;;;;;4994881;28;20555;-81
2021/11/04 00:34:23;;;;;;;70.30;26.23;;;6.60;99.90;;;;;;4979703;28;20042;-82
2021/11/04 00:36:49;;;;;;;74.95;28.15;;;6.60;99.90;;;;;;4978564;28;20499;-82
2021/11/04 00:39:15;;;;;;;67.05;27.23;;;6.50;99.90;;;;;;4995096;28;20038;-81
2021/11/04 00:41:41;;;;;;;97.03;29.40;;;6.60;99.90;;;;;;5025957;23;20053;-51
2021/11/04 00:44:08;;;;;;;158.27;31.90;;;6.60;99.90;;;;;;5005233;28;20037;-52
2021/11/04 00:46:35;;;;;;;101.47;28.50;;;6.50;99.90;;;;;;5011577;28;20053;-51
2021/11/04 00:49:00;;;;;;;90.28;28.67;;;6.50;99.90;;;;;;5010881;28;20113;-51
2021/11/04 00:51:27;;;;;;;199.15;30.73;;;6.50;99.90;;;;;;5011268;28;20165;-51
2021/11/04 00:53:53;;;;;;;64.78;27.05;;;6.50;99.90;;;;;;5007034;28;20482;-51
2021/11/04 00:56:19;;;;;;;87.30;28.75;;;6.50;99.90;;;;;;5000688;28;20046;-54
2021/11/04 00:58:49;;;;;;;116.25;29.10;;;6.40;99.90;;;;;;5008299;28;20044;-51
2021/11/04 01:01:18;;;;;;;182.45;29.80;;;6.50;99.90;;;;;;5001987;28;20073;-51
2021/11/04 01:03:44;;;;;;;158.50;30.33;;;6.50;99.90;;;;;;5008236;28;20041;-51
2021/11/04 01:06:10;;;;;;;105.53;30.27;;;6.40;99.90;;;;;;5004524;28;20035;-53
2021/11/04 01:08:36;;;;;;;91.57;30.25;;;6.40;99.90;;;;;;5011001;28;20045;-51
2021/11/04 01:11:01;;;;;;;77.93;29.63;;;6.40;99.90;;;;;;5010940;28;20386;-53
2021/11/04 01:13:27;;;;;;;75.25;29.73;;;6.40;99.90;;;;;;5010480;28;20128;-57
2021/11/04 01:15:52;;;;;;;76.93;28.33;;;6.40;99.90;;;;;;5011230;28;20472;-51
2021/11/04 01:18:18;;;;;;;100.20;29.45;;;6.40;99.90;;;;;;5011303;28;20056;-53
2021/11/04 01:20:44;;;;;;;80.25;29.13;;;6.40;99.90;;;;;;5008090;28;20042;-51
2021/11/04 01:23:09;;;;;;;60.97;28.30;;;6.40;99.90;;;;;;5007552;28;20044;-51
2021/11/04 01:25:35;;;;;;;77.38;28.33;;;6.40;99.90;;;;;;5009015;28;20093;-55
2021/11/04 01:28:03;;;;;;;84.85;29.17;;;6.50;99.90;;;;;;5010884;28;20036;-57
2021/11/04 01:30:29;;;;;;;69.68;27.85;;;6.50;99.90;;;;;;5006706;28;20124;-56
2021/11/04 01:32:54;;;;;;;115.32;30.65;;;6.50;99.90;;;;;;5010119;28;20112;-57
2021/11/04 01:35:20;;;;;;;86.15;30.13;;;6.50;99.90;;;;;;5005563;28;20041;-57
2021/11/04 01:37:45;;;;;;;66.65;29.23;;;6.50;99.90;;;;;;5009585;28;20034;-57
2021/11/04 01:40:11;;;;;;;105.13;30.52;;;6.50;99.90;;;;;;5007746;28;20125;-57
2021/11/04 01:42:37;;;;;;;94.72;28.55;;;6.50;99.90;;;;;;5010867;28;20037;-54
2021/11/04 01:45:03;;;;;;;102.22;31.58;;;6.50;99.90;;;;;;5010061;28;20572;-57
2021/11/04 01:47:29;;;;;;;99.15;30.50;;;6.50;99.90;;;;;;5007259;28;20166;-57
2021/11/04 01:49:54;;;;;;;120.38;29.00;;;6.50;99.90;;;;;;5010628;28;20134;-57
2021/11/04 01:52:22;;;;;;;82.72;29.85;;;6.50;99.90;;;;;;5007017;28;20070;-56
2021/11/04 01:54:47;;;;;;;76.65;28.35;;;6.60;99.90;;;;;;5010703;28;20053;-56
2021/11/04 01:57:13;;;;;;;69.28;29.13;;;6.50;99.90;;;;;;5007640;28;20057;-57
2021/11/04 01:59:38;;;;;;;93.55;30.30;;;6.50;99.90;;;;;;5010871;28;20038;-55
2021/11/04 02:02:23;;;;;;;79.15;30.15;;;6.50;99.90;;;;;;5010226;28;20041;-52
2021/11/04 02:05:05;;;;;;;87.93;30.25;;;6.50;99.90;;;;;;5011216;28;20113;-54
2021/11/04 02:07:44;;;;;;;110.27;32.20;;;6.60;99.90;;;;;;5008002;28;20099;-56
2021/11/04 02:10:19;;;;;;;115.55;30.17;;;6.50;99.90;;;;;;5010876;28;20265;-55
2021/11/04 02:13:11;;;;;;;83.25;31.35;;;6.50;99.90;;;;;;5010594;28;20045;-53
2021/11/04 02:15:39;;;;;;;75.07;29.50;;;6.50;99.90;;;;;;5009459;28;20042;-56
2021/11/04 02:18:08;;;;;;;80.57;31.70;;;6.50;99.90;;;;;;5011528;28;20044;-56
2021/11/04 02:21:02;;;;;;;125.60;33.30;;;6.60;99.90;;;;;;5009143;28;20038;-57
2021/11/04 02:23:39;;;;;;;129.65;33.03;;;6.60;99.90;;;;;;5007992;28;20409;-57
2021/11/04 02:26:06;;;;;;;196.40;34.08;;;6.60;99.90;;;;;;5010789;28;20053;-57
2021/11/04 02:28:34;;;;;;;275.40;34.92;;;6.60;99.90;;;;;;5014464;28;20045;-57
2021/11/04 02:31:05;;;;;;;131.30;34.67;;;6.60;99.90;;;;;;5013841;28;20042;-57
2021/11/04 02:33:31;;;;;;;150.88;35.78;;;6.50;99.90;;;;;;5009643;28;20038;-57
2021/11/04 02:35:58;;;;;;;179.55;35.75;;;6.50;99.90;;;;;;5015346;28;20383;-57
2021/11/04 02:38:28;;;;;;;207.20;34.17;;;6.60;99.90;;;;;;5014532;28;20045;-57
2021/11/04 02:40:54;;;;;;;180.40;36.75;;;6.50;99.90;;;;;;5008346;28;20042;-54
2021/11/04 02:43:20;;;;;;;145.43;33.33;;;6.60;99.90;;;;;;5007916;28;20033;-54
2021/11/04 02:45:47;;;;;;;101.40;32.97;;;6.50;99.90;;;;;;5010633;28;20050;-56
2021/11/04 02:48:17;;;;;;;102.15;33.00;;;6.50;99.90;;;;;;5011363;28;20045;-57
2021/11/04 02:50:45;;;;;;;98.70;32.10;;;6.60;99.90;;;;;;5013618;28;20038;-55
2021/11/04 02:53:17;;;;;;;130.02;33.90;;;6.60;99.90;;;;;;5013270;28;20033;-54
2021/11/04 02:55:43;;;;;;;96.57;32.47;;;6.60;99.90;;;;;;5013738;28;20029;-53
2021/11/04 02:58:10;;;;;;;93.78;32.08;;;6.60;99.90;;;;;;5011426;28;20180;-54
2021/11/04 03:00:39;;;;;;;101.35;31.98;;;6.60;99.90;;;;;;5012612;28;20113;-56
2021/11/04 03:03:05;;;;;;;146.93;33.20;;;6.60;99.90;;;;;;5013665;28;20046;-54
2021/11/04 03:05:31;;;;;;;94.07;31.90;;;6.60;99.90;;;;;;5013054;28;20046;-55
2021/11/04 03:07:57;;;;;;;129.55;32.88;;;6.60;99.90;;;;;;5013415;28;20038;-55
2021/11/04 03:10:23;;;;;;;115.57;33.35;;;6.60;99.90;;;;;;5011865;28;20132;-55
2021/11/04 03:12:49;;;;;;;102.15;33.97;;;6.60;99.90;;;;;;5013221;28;20033;-56
2021/11/04 03:15:21;;;;;;;162.60;35.08;;;6.60;99.90;;;;;;5012900;28;20092;-56
2021/11/04 03:17:49;;;;;;;137.20;33.65;;;6.60;99.90;;;;;;5009605;28;20113;-54
2021/11/04 03:20:19;;;;;;;175.80;34.30;;;6.60;99.90;;;;;;5013175;28;20100;-54
2021/11/04 03:22:46;;;;;;;187.27;38.03;;;6.60;99.90;;;;;;5007200;28;20133;-54
2021/11/04 03:25:15;;;;;;;126.60;37.17;;;6.70;99.90;;;;;;5011482;28;20037;-54
2021/11/04 03:27:46;;;;;;;116.57;36.10;;;6.60;99.90;;;;;;5010519;28;20061;-54
2021/11/04 03:30:15;;;;;;;131.18;37.95;;;6.60;99.90;;;;;;5012891;28;20046;-54
2021/11/04 03:32:42;;;;;;;155.07;35.53;;;6.60;99.90;;;;;;5012521;28;20414;-55
2021/11/04 03:35:09;;;;;;;184.55;34.25;;;6.60;99.90;;;;;;5012462;28;20053;-53
2021/11/04 03:37:38;;;;;;;109.63;34.70;;;6.70;99.90;;;;;;5012794;28;20717;-53
2021/11/04 03:40:05;;;;;;;105.10;33.10;;;6.70;99.90;;;;;;5012017;28;20633;-54
2021/11/04 03:42:31;;;;;;;130.32;33.30;;;6.60;99.90;;;;;;5012862;28;20514;-54
2021/11/04 03:44:59;;;;;;;178.27;35.47;;;6.60;99.90;;;;;;5012864;28;20041;-53
2021/11/04 03:47:29;;;;;;;93.63;33.13;;;6.60;99.90;;;;;;5011004;28;20041;-52
2021/11/04 03:49:56;;;;;;;104.32;33.67;;;6.60;99.90;;;;;;5008900;28;20116;-54
2021/11/04 03:52:22;;;;;;;98.13;32.50;;;6.60;99.90;;;;;;5012613;28;20038;-56
2021/11/04 03:54:48;;;;;;;97.70;34.10;;;6.60;99.90;;;;;;5011922;28;20088;-54
2021/11/04 03:57:14;;;;;;;84.78;31.73;;;6.70;99.90;;;;;;4999602;28;20073;-54
2021/11/04 03:59:40;;;;;;;98.07;34.13;;;6.60;99.90;;;;;;5010179;28;20548;-55
2021/11/04 04:02:08;;;;;;;84.05;31.98;;;6.70;99.90;;;;;;5012480;28;20049;-53
2021/11/04 04:04:34;;;;;;;92.90;31.67;;;6.70;99.90;;;;;;5012663;28;20048;-56
2021/11/04 04:07:00;;;;;;;84.70;32.05;;;6.70;99.90;;;;;;5012379;28;20041;-55
2021/11/04 04:09:26;;;;;;;77.55;30.58;;;6.70;99.90;;;;;;5008289;28;20034;-54
2021/11/04 04:11:52;;;;;;;82.68;30.83;;;6.80;99.90;;;;;;5009717;28;20087;-53
2021/11/04 04:14:18;;;;;;;81.88;30.60;;;6.70;99.90;;;;;;5007654;28;20045;-54
2021/11/04 04:16:44;;;;;;;98.47;31.50;;;6.70;99.90;;;;;;5012094;28;20490;-54
2021/11/04 04:19:10;;;;;;;116.75;32.33;;;6.70;99.90;;;;;;5012495;28;20108;-54
2021/11/04 04:21:36;;;;;;;116.88;29.70;;;6.70;99.90;;;;;;5010248;28;20466;-54
2021/11/04 04:24:02;;;;;;;155.85;32.85;;;6.70;99.90;;;;;;5010589;28;20048;-54
2021/11/04 04:26:28;;;;;;;88.85;30.00;;;6.70;99.90;;;;;;5011247;28;20065;-54
2021/11/04 04:28:54;;;;;;;122.82;31.25;;;6.60;99.90;;;;;;5011625;28;20041;-54
2021/11/04 04:31:19;;;;;;;86.50;27.92;;;6.70;99.90;;;;;;5005935;28;20050;-55
2021/11/04 04:33:45;;;;;;;66.75;27.70;;;6.60;99.90;;;;;;5011016;28;20034;-55
2021/11/04 04:36:11;;;;;;;77.97;29.05;;;6.70;99.90;;;;;;5005915;28;20045;-54
2021/11/04 04:38:36;;;;;;;65.90;28.65;;;6.70;99.90;;;;;;5000787;28;20050;-54
2021/11/04 04:41:02;;;;;;;64.45;26.48;;;6.70;99.90;;;;;;5010250;28;20044;-54
2021/11/04 04:43:28;;;;;;;63.50;27.40;;;6.70;99.90;;;;;;5004130;28;20402;-56
2021/11/04 04:45:54;;;;;;;65.00;27.08;;;6.70;99.90;;;;;;5011916;28;20445;-53
2021/11/04 04:48:20;;;;;;;65.13;26.02;;;6.70;99.90;;;;;;5011631;28;20106;-55
2021/11/04 04:50:45;;;;;;;53.75;24.35;;;6.70;99.90;;;;;;5010703;28;20088;-55
2021/11/04 04:53:11;;;;;;;53.70;24.67;;;6.70;99.90;;;;;;5011503;28;20482;-53
2021/11/04 04:55:36;;;;;;;59.88;25.00;;;6.70;99.90;;;;;;5003931;28;20043;-53
2021/11/04 04:58:02;;;;;;;55.38;25.48;;;6.70;99.90;;;;;;5007257;28;20477;-54
2021/11/04 05:00:28;;;;;;;49.50;24.63;;;6.70;99.90;;;;;;5006589;28;20030;-54
2021/11/04 05:02:54;;;;;;;49.53;25.15;;;6.80;99.90;;;;;;5010392;28;20041;-54
2021/11/04 05:05:20;;;;;;;50.85;25.25;;;6.70;99.90;;;;;;5011163;28;20617;-54
2021/11/04 05:07:45;;;;;;;62.20;26.33;;;6.70;99.90;;;;;;5010961;28;20050;-52
2021/11/04 05:10:12;;;;;;;62.47;26.85;;;6.70;99.90;;;;;;5011178;28;20654;-54
2021/11/04 05:12:38;;;;;;;60.92;26.35;;;6.70;99.90;;;;;;5010533;28;20482;-51
2021/11/04 05:15:05;;;;;;;62.85;25.50;;;6.70;99.90;;;;;;5010920;28;20433;-54
2021/11/04 05:17:31;;;;;;;65.70;27.55;;;6.60;99.90;;;;;;5010706;28;20490;-52
2021/11/04 05:19:57;;;;;;;68.00;27.33;;;6.70;99.90;;;;;;5011425;28;20030;-54
2021/11/04 05:22:22;;;;;;;76.90;28.42;;;6.60;99.90;;;;;;5010866;28;20458;-53
2021/11/04 05:24:48;;;;;;;65.07;25.88;;;6.70;99.90;;;;;;5010982;28;20044;-55
2021/11/04 05:27:14;;;;;;;55.80;26.23;;;6.70;99.90;;;;;;5010506;28;20506;-51
2021/11/04 05:29:40;;;;;;;57.70;26.38;;;6.60;99.90;;;;;;5010420;28;20552;-51
2021/11/04 05:32:09;;;;;;;58.50;24.58;;;6.60;99.90;;;;;;5010023;28;20041;-51
2021/11/04 05:34:36;;;;;;;51.47;24.00;;;6.60;99.90;;;;;;5010712;28;20592;-54
2021/11/04 05:37:02;;;;;;;49.10;24.70;;;6.60;99.90;;;;;;5011069;28;20073;-51
2021/11/04 05:39:27;;;;;;;49.03;23.90;;;6.60;99.90;;;;;;5002618;28;20080;-53
2021/11/04 05:41:53;;;;;;;49.17;23.27;;;6.60;99.90;;;;;;5009983;28;20141;-52
2021/11/04 05:44:18;;;;;;;52.65;25.35;;;6.50;99.90;;;;;;5003797;28;20038;-58
2021/11/04 05:46:44;;;;;;;51.58;25.50;;;6.50;99.90;;;;;;5009958;28;20042;-51
2021/11/04 05:49:09;;;;;;;49.70;24.77;;;6.50;99.90;;;;;;5010587;28;20121;-51
2021/11/04 05:51:35;;;;;;;47.08;25.02;;;6.60;99.90;;;;;;5014420;28;20042;-52
2021/11/04 05:54:00;;;;;;;52.03;26.25;;;6.60;99.90;;;;;;5014015;28;20114;-50
2021/11/04 05:56:26;;;;;;;43.17;23.67;;;6.60;99.90;;;;;;5011960;28;20038;-54
2021/11/04 05:58:51;;;;;;;43.05;24.17;;;6.60;99.90;;;;;;5011214;28;20042;-51
2021/11/04 06:01:17;;;;;;;51.35;25.67;;;6.60;99.90;;;;;;5014494;28;20116;-53
2021/11/04 06:03:42;;;;;;;50.40;25.10;;;6.50;99.90;;;;;;5013848;28;20073;-51
2021/11/04 06:06:08;;;;;;;49.25;25.75;;;6.50;99.90;;;;;;5014451;28;20123;-51
2021/11/04 06:08:33;;;;;;;50.67;25.17;;;6.50;99.90;;;;;;5013024;28;20053;-52
2021/11/04 06:10:59;;;;;;;48.67;25.23;;;6.60;99.90;;;;;;5007357;28;20037;-55
2021/11/04 06:13:24;;;;;;;50.45;25.80;;;6.50;99.90;;;;;;5014268;28;20046;-51
2021/11/04 06:15:50;;;;;;;50.70;25.98;;;6.50;99.90;;;;;;5013953;28;20049;-52
2021/11/04 06:18:16;;;;;;;56.45;25.73;;;6.50;99.90;;;;;;5014287;28;20066;-53
2021/11/04 06:20:42;;;;;;;53.72;25.73;;;6.50;99.90;;;;;;5012710;28;20394;-52
2021/11/04 06:23:07;;;;;;;52.78;25.33;;;6.50;99.90;;;;;;5012987;28;20041;-53
2021/11/04 06:25:33;;;;;;;45.28;24.92;;;6.50;99.90;;;;;;5010906;28;20049;-52
2021/11/04 06:27:59;;;;;;;43.50;23.83;;;6.50;99.90;;;;;;5008308;28;20497;-54
2021/11/04 06:30:24;;;;;;;44.22;23.85;;;6.50;99.90;;;;;;5014185;28;20045;-52
2021/11/04 06:32:50;;;;;;;46.92;24.42;;;6.50;99.90;;;;;;5013888;28;20077;-52
2021/11/04 06:35:16;;;;;;;46.85;25.75;;;6.50;99.90;;;;;;5010560;28;20124;-53
2021/11/04 06:37:42;;;;;;;45.78;24.60;;;6.50;99.90;;;;;;5010954;28;20088;-54
2021/11/04 06:40:09;;;;;;;44.53;24.38;;;6.50;99.90;;;;;;5013580;28;20033;-54
2021/11/04 06:42:36;;;;;;;48.92;24.85;;;6.50;99.90;;;;;;5029321;23;20038;-50
2021/11/04 06:45:04;;;;;;;49.33;25.20;;;6.60;99.90;;;;;;5008706;28;20440;-50
2021/11/04 06:47:42;;;;;;;49.42;25.23;;;6.60;99.90;;;;;;5013492;28;20112;-50
2021/11/04 06:50:11;;;;;;;49.90;25.38;;;6.50;99.90;;;;;;5013817;28;20117;-49
2021/11/04 06:52:43;;;;;;;50.33;26.52;;;6.60;99.90;;;;;;5010775;28;20042;-51
2021/11/04 06:55:11;;;;;;;45.80;25.42;;;6.60;99.90;;;;;;4991438;28;20045;-50
2021/11/04 06:57:41;;;;;;;47.03;25.85;;;6.60;99.90;;;;;;5004936;28;20053;-53
2021/11/04 07:03:42;;;;;;;55.38;27.40;;;6.60;99.90;;;;;;5008456;28;20054;-55
2021/11/04 07:06:09;;;;;;;58.42;27.80;;;6.50;99.90;;;;;;5010027;28;20034;-55
2021/11/04 07:08:44;;;;;;;57.33;27.92;;;6.60;99.90;;;;;;5010289;28;20038;-52
2021/11/04 07:11:09;;;;;;;57.78;28.35;;;6.60;99.90;;;;;;5012077;28;20519;-54
2021/11/04 07:13:36;;;;;;;69.05;29.98;;;6.60;99.90;;;;;;5001017;28;20038;-55
2021/11/04 07:16:03;;;;;;;61.50;29.65;;;6.60;99.90;;;;;;4993850;28;20096;-56
2021/11/04 07:18:29;;;;;;;67.03;29.77;;;6.60;99.90;;;;;;4991470;28;20133;-52
2021/11/04 07:21:28;;;;;;;54.88;27.98;;;6.70;99.90;;;;;;4990230;28;20523;-54
2021/11/04 07:24:03;;;;;;;56.00;27.15;;;6.60;99.90;;;;;;4982884;28;20169;-55
2021/11/04 07:26:38;;;;;;;59.10;28.70;;;6.60;99.90;;;;;;4985646;28;20043;-56
2021/11/04 07:29:05;;;;;;;63.22;29.88;;;6.70;99.90;;;;;;4993694;28;20037;-56
2021/11/04 07:31:34;;;;;;;64.25;29.15;;;6.70;99.90;;;;;;4988886;28;20128;-56
2021/11/04 07:34:03;;;;;;;78.35;31.02;;;6.70;99.90;;;;;;4980176;28;20057;-56
2021/11/04 07:36:34;;;;;;;60.85;29.88;;;6.70;99.90;;;;;;4981178;28;20041;-55
2021/11/04 07:42:56;;;;;;;64.35;30.17;;;6.60;99.90;;;;;;4978655;28;20052;-53
2021/11/04 07:45:23;;;;;;;57.60;28.75;;;6.60;99.90;;;;;;4978962;28;20046;-53
2021/11/04 07:47:49;;;;;;;65.88;30.13;;;6.70;99.90;;;;;;4983307;28;20038;-51
2021/11/04 07:50:20;;;;;;;68.40;29.95;;;6.70;99.90;;;;;;4982987;28;20054;-55
2021/11/04 07:52:47;;;;;;;69.82;30.10;;;6.70;99.90;;;;;;4986217;28;20112;-55
2021/11/04 07:55:14;;;;;;;72.55;29.80;;;6.70;99.90;;;;;;4979158;28;20039;-55
2021/11/04 07:57:40;;;;;;;57.58;27.88;;;6.80;99.90;;;;;;4982271;28;20038;-54
2021/11/04 08:00:11;;;;;;;61.78;29.05;;;6.80;99.90;;;;;;4981176;28;20125;-52
2021/11/04 08:02:40;;;;;;;60.17;29.73;;;6.80;99.90;;;;;;4981034;28;20038;-52
2021/11/04 08:05:06;;;;;;;65.03;28.88;;;6.80;99.90;;;;;;4988788;28;20046;-50
2021/11/04 08:07:33;;;;;;;65.43;30.17;;;6.90;99.90;;;;;;4989168;28;20414;-51
2021/11/04 08:09:59;;;;;;;56.30;28.90;;;6.90;99.90;;;;;;4989926;28;20038;-60
2021/11/04 08:12:25;;;;;;;58.13;28.10;;;6.90;99.90;;;;;;4978224;28;20038;-57
2021/11/04 08:14:51;;;;;;;59.35;29.20;;;7.00;99.90;;;;;;4980205;28;20042;-57
2021/11/04 08:17:17;;;;;;;52.40;26.35;;;7.00;99.90;;;;;;4992488;28;20088;-58
2021/11/04 08:19:42;;;;;;;50.90;27.38;;;7.00;99.90;;;;;;4993864;28;20038;-57
2021/11/04 08:22:08;;;;;;;62.20;28.83;;;7.00;99.90;;;;;;4991480;28;20043;-57
2021/11/04 08:24:33;;;;;;;49.53;26.48;;;7.00;99.90;;;;;;4992575;28;20486;-57
2021/11/04 08:26:59;;;;;;;73.72;40.85;;;7.00;99.90;;;;;;4992522;28;20037;-57
2021/11/04 08:29:25;;;;;;;55.40;28.77;;;7.00;99.90;;;;;;4995499;28;20117;-58
2021/11/04 08:31:51;;;;;;;57.05;27.15;;;6.90;99.90;;;;;;4992510;28;20035;-58
2021/11/04 08:34:16;;;;;;;54.90;27.33;;;6.90;99.90;;;;;;4996814;28;20386;-58
2021/11/04 08:36:43;;;;;;;58.78;28.67;;;7.00;99.90;;;;;;4992161;28;20069;-58
2021/11/04 08:39:10;;;;;;;58.10;27.85;;;7.00;99.90;;;;;;4991988;28;20039;-58
2021/11/04 08:41:35;;;;;;;49.13;26.17;;;7.00;99.90;;;;;;4997725;28;20041;-57
2021/11/04 08:44:02;;;;;;;48.83;26.00;;;7.10;99.90;;;;;;4992314;28;20409;-58
2021/11/04 08:46:28;;;;;;;48.03;25.75;;;7.10;99.90;;;;;;4991900;28;20089;-58
2021/11/04 08:48:54;;;;;;;55.50;26.17;;;7.10;99.90;;;;;;4991981;28;20038;-58
2021/11/04 08:51:19;;;;;;;53.78;28.25;;;7.10;99.90;;;;;;4991686;28;20038;-58
2021/11/04 08:53:46;;;;;;;60.50;29.52;;;7.10;99.90;;;;;;4971556;28;20035;-57
2021/11/04 08:56:11;;;;;;;54.88;27.92;;;7.20;99.90;;;;;;4974527;28;20042;-58
2021/11/04 08:58:37;;;;;;;55.15;27.25;;;7.10;99.90;;;;;;4991810;28;20401;-58
2021/11/04 09:01:04;;;;;;;54.00;27.77;;;7.20;99.90;;;;;;4992005;28;20030;-58
2021/11/04 09:03:30;;;;;;;51.22;25.85;;;7.20;99.90;;;;;;4990695;28;20038;-57
2021/11/04 09:05:56;;;;;;;50.15;26.20;;;7.30;99.90;;;;;;4992279;28;20053;-57
2021/11/04 09:08:23;;;;;;;47.38;24.88;;;7.30;99.90;;;;;;4973611;28;20050;-57
2021/11/04 09:10:49;;;;;;;51.50;25.38;;;7.30;99.90;;;;;;4991760;28;20097;-58
2021/11/04 09:13:16;;;;;;;47.30;25.17;;;7.30;99.90;;;;;;4976607;28;20124;-57
2021/11/04 09:15:41;;;;;;;50.72;28.45;;;7.30;99.90;;;;;;4990291;28;20498;-58
2021/11/04 09:18:07;;;;;;;51.35;26.10;;;7.30;99.90;;;;;;4996574;28;20097;-58
2021/11/04 09:20:33;;;;;;;54.17;35.00;;;7.30;99.90;;;;;;4991864;28;20517;-57
2021/11/04 09:22:59;;;;;;;62.30;44.28;;;7.30;99.90;;;;;;4990640;28;20038;-58
2021/11/04 09:25:25;;;;;;;46.25;27.17;;;7.30;99.90;;;;;;4990451;28;20128;-57
2021/11/04 09:27:53;;;;;;;42.47;23.70;;;7.30;99.90;;;;;;4993735;28;20568;-57
2021/11/04 09:30:18;;;;;;;42.97;23.48;;;7.30;99.90;;;;;;4990327;28;20039;-58
2021/11/04 09:32:45;;;;;;;44.20;23.60;;;7.30;99.90;;;;;;4992127;28;20614;-58
2021/11/04 09:35:12;;;;;;;46.97;24.85;;;7.40;99.90;;;;;;4991206;28;21797;-56
2021/11/04 09:37:39;;;;;;;39.35;21.77;;;7.30;99.90;;;;;;4992972;28;20046;-58
2021/11/04 09:40:06;;;;;;;38.45;21.42;;;7.30;99.90;;;;;;4992793;28;20031;-57
2021/11/04 09:42:33;;;;;;;41.55;21.98;;;7.30;99.90;;;;;;4984030;28;20038;-57
2021/11/04 09:44:58;;;;;;;41.22;22.10;;;7.30;99.90;;;;;;4990117;28;20093;-58
2021/11/04 09:47:29;;;;;;;35.42;21.52;;;7.30;99.90;;;;;;4985315;28;20042;-57
2021/11/04 09:50:12;;;;;;;45.20;23.88;;;7.30;99.90;;;;;;4994723;28;20049;-56
2021/11/04 09:52:41;;;;;;;36.35;20.83;;;7.30;99.90;;;;;;4994677;28;20042;-58
2021/11/04 09:55:19;;;;;;;34.05;20.40;;;7.40;99.90;;;;;;4988637;28;20457;-58
2021/11/04 09:57:50;;;;;;;37.17;21.10;;;7.40;99.90;;;;;;4991832;28;20375;-57
2021/11/04 10:00:16;;;;;;;41.15;22.67;;;7.40;99.90;;;;;;4995077;28;20038;-56
2021/11/04 10:02:44;;;;;;;45.20;26.33;;;7.40;99.90;;;;;;4996476;28;20474;-57
2021/11/04 10:05:14;;;;;;;42.22;22.58;;;7.40;99.90;;;;;;4987463;28;20513;-57
2021/11/04 10:07:48;;;;;;;44.05;25.08;;;7.50;99.90;;;;;;4990588;28;20081;-57
2021/11/04 10:10:15;;;;;;;41.08;23.48;;;7.50;99.90;;;;;;4992874;28;20109;-57
2021/11/04 10:12:59;;;;;;;39.33;22.27;;;7.50;99.90;;;;;;4992779;28;20109;-57
2021/11/04 10:15:24;;;;;;;38.45;22.23;;;7.60;99.90;;;;;;4981307;28;20043;-57
2021/11/04 10:17:50;;;;;;;38.28;21.65;;;7.60;99.90;;;;;;4986784;28;20117;-56
2021/11/04 10:20:27;;;;;;;37.28;21.58;;;7.60;99.90;;;;;;4982062;28;20060;-57
2021/11/04 10:23:05;;;;;;;36.97;20.83;;;7.60;99.90;;;;;;4972763;28;20130;-57
2021/11/04 10:25:31;;;;;;;33.17;20.17;;;7.60;99.90;;;;;;4988139;28;20039;-55
2021/11/04 10:27:58;;;;;;;36.08;20.67;;;7.60;99.90;;;;;;4984688;28;20040;-56
2021/11/04 10:30:39;;;;;;;36.10;20.48;;;7.70;99.90;;;;;;4979629;28;20517;-57
2021/11/04 10:33:23;;;;;;;33.15;19.42;;;7.70;99.90;;;;;;4981683;28;20066;-57
2021/11/04 10:35:52;;;;;;;32.78;20.10;;;7.70;99.90;;;;;;4997779;28;20108;-57
2021/11/04 10:38:17;;;;;;;35.90;20.58;;;7.80;99.90;;;;;;4989867;28;20042;-57
2021/11/04 10:40:43;;;;;;;37.22;19.90;;;7.70;99.90;;;;;;4993385;28;20034;-57
2021/11/04 10:43:09;;;;;;;40.13;21.88;;;7.80;99.90;;;;;;4995490;28;20042;-57
2021/11/04 10:45:34;;;;;;;37.92;20.27;;;7.70;99.90;;;;;;4991198;28;20073;-55
2021/11/04 10:48:20;;;;;;;37.65;21.40;;;7.70;99.90;;;;;;4995811;28;20065;-57
2021/11/04 10:50:49;;;;;;;35.47;20.85;;;7.70;99.90;;;;;;4997995;28;20096;-57
2021/11/04 10:53:20;;;;;;;38.83;22.25;;;7.80;99.90;;;;;;4991819;28;20084;-58
2021/11/04 10:55:49;;;;;;;39.22;22.00;;;7.80;99.90;;;;;;4990459;28;20054;-56
2021/11/04 10:58:32;;;;;;;39.35;22.23;;;7.80;99.90;;;;;;4995969;28;20043;-57
2021/11/04 11:00:58;;;;;;;32.67;18.55;;;7.90;99.90;;;;;;4987162;28;20037;-57
2021/11/04 11:03:25;;;;;;;34.85;20.20;;;8.00;99.90;;;;;;4994344;28;20050;-51
2021/11/04 11:05:55;;;;;;;32.00;17.95;;;8.00;99.90;;;;;;4988944;28;20050;-50
2021/11/04 11:08:21;;;;;;;30.08;17.13;;;8.00;99.90;;;;;;4991410;28;20461;-50
2021/11/04 11:10:47;;;;;;;30.15;17.25;;;8.10;99.90;;;;;;4994287;28;20133;-50
2021/11/04 11:13:12;;;;;;;29.35;17.05;;;8.10;99.90;;;;;;4989988;28;20121;-50
2021/11/04 11:15:42;;;;;;;29.85;17.10;;;8.00;99.90;;;;;;4991891;28;20510;-51
2021/11/04 11:18:09;;;;;;;29.35;17.38;;;8.00;99.90;;;;;;4981647;28;20038;-53
2021/11/04 11:20:44;;;;;;;31.15;17.80;;;8.00;99.90;;;;;;4994850;28;20045;-51
2021/11/04 11:23:19;;;;;;;28.17;17.08;;;8.00;99.90;;;;;;4976209;28;20042;-52
2021/11/04 11:25:59;;;;;;;31.15;17.88;;;8.00;99.90;;;;;;4979774;28;20495;-53
2021/11/04 11:28:29;;;;;;;28.83;17.23;;;8.00;99.90;;;;;;4978467;28;20050;-52
2021/11/04 11:31:10;;;;;;;27.30;15.60;;;8.10;99.90;;;;;;4984427;28;20049;-52
2021/11/04 11:33:45;;;;;;;28.05;14.82;;;8.20;99.90;;;;;;4980301;28;20617;-52
2021/11/04 11:36:19;;;;;;;28.60;15.82;;;8.20;99.90;;;;;;4977501;28;20495;-50
2021/11/04 11:39:04;;;;;;;26.05;16.00;;;8.10;99.90;;;;;;4977477;28;20476;-52
2021/11/04 11:41:30;;;;;;;25.73;16.05;;;8.10;99.90;;;;;;4978426;28;20042;-51
2021/11/04 11:43:59;;;;;;;30.85;16.63;;;8.10;99.90;;;;;;4981090;28;20035;-53
2021/11/04 11:46:26;;;;;;;27.85;15.98;;;8.10;99.90;;;;;;4979939;28;20039;-54
2021/11/04 11:49:10;;;;;;;26.70;15.70;;;8.20;99.90;;;;;;4962573;28;20445;-52
2021/11/04 11:51:41;;;;;;;27.85;15.95;;;8.30;99.90;;;;;;4976280;28;20073;-52
2021/11/04 11:54:07;;;;;;;30.65;17.75;;;8.30;99.90;;;;;;4975641;28;20127;-50
2021/11/04 11:56:34;;;;;;;39.90;17.95;;;8.30;99.90;;;;;;4977434;28;20511;-54
2021/11/04 11:59:19;;;;;;;30.50;18.48;;;8.20;99.90;;;;;;4987337;28;20101;-55
2021/11/04 12:01:49;;;;;;;29.58;17.75;;;8.20;99.90;;;;;;4991876;28;20601;-52
2021/11/04 12:04:22;;;;;;;33.45;18.17;;;8.30;99.90;;;;;;4995559;28;20100;-54
2021/11/04 12:06:48;;;;;;;31.80;18.35;;;8.40;99.90;;;;;;4981152;28;20125;-54
2021/11/04 12:09:41;;;;;;;31.23;17.90;;;8.50;99.90;;;;;;4978838;28;20129;-54
2021/11/04 12:12:07;;;;;;;;;;;8.70;99.90;;;;;;4977632;28;20053;-54
2021/11/04 12:14:35;;;;;;;27.45;16.65;;;8.80;99.90;;;;;;4975470;28;19949;-55
2021/11/04 12:17:05;;;;;;;26.23;15.88;;;8.80;99.90;;;;;;4978511;28;20085;-53
2021/11/04 12:19:40;;;;;;;27.20;15.70;;;8.80;99.90;;;;;;4978394;28;20052;-51
2021/11/04 12:22:26;;;;;;;24.23;14.43;;;8.70;99.90;;;;;;4982681;28;20117;-54
2021/11/04 12:25:00;;;;;;;28.67;16.58;;;8.70;99.90;;;;;;4975123;28;20391;-54
2021/11/04 12:27:30;;;;;;;24.65;14.70;;;8.70;99.90;;;;;;4979180;28;20445;-54
2021/11/04 12:29:56;;;;;;;26.20;15.95;;;8.70;99.90;;;;;;4977478;28;20050;-54
2021/11/04 12:32:26;;;;;;;23.42;15.32;;;8.70;99.90;;;;;;4972615;28;20460;-54
2021/11/04 12:34:58;;;;;;;23.85;14.85;;;8.70;99.90;;;;;;4956050;28;20053;-54
2021/11/04 12:37:30;;;;;;;22.48;14.68;;;8.70;99.90;;;;;;4982796;28;20053;-54
2021/11/04 12:39:59;;;;;;;22.65;14.27;;;8.80;99.90;;;;;;4977041;28;20070;-54
2021/11/04 12:42:25;;;;;;;23.38;14.05;;;8.90;99.90;;;;;;4994003;28;20045;-54
2021/11/04 12:44:51;;;;;;;25.05;14.93;;;8.90;99.90;;;;;;4978680;28;20047;-54
2021/11/04 12:47:19;;;;;;;23.73;14.48;;;9.00;99.90;;;;;;4974673;28;20126;-54